Bettles Field, AK (99726)

6:12 PM AKDT on September 02, 2014 (GMT -0800)
Bettles | Change Station
CLOSE
Current Station
Airport
Location: Bettles,
Elevation: 643 ft
Nearby Weather Stations

Elev 643 ft 66.91 °N, 151.53 °W | Updated 19 minutes ago

Mostly Cloudy
Mostly Cloudy
44 °F
Feels Like 38 °F
N
13
Wind Variable Wind from WSW
Gusts 30 mph

Today
High -- | Low -- °F
--% Chance of Precip.
Yesterday
High -- | Low -- °F
Precip. -- in
6:36 AM 9:26 PM
First Quarter, 57% visible
Pressure 29.83 in
Visibility 10.0 miles
Clouds Few 4800 ft
Scattered Clouds 6500 ft
Mostly Cloudy 10000 ft
Windchill 38 °F
Dew Point 23 °F
Humidity 43%
Rainfall 0.04 in
Snow Depth 1 in
UV 1 out of 12
Pollen Not available.
Air Quality Not available.
Flu Activity Not available.
METAR PABT 030153Z 25011G26KT 10SM FEW048 SCT065 BKN100 07/M05 A2979 RMK AO2 PK WND 25029/0132 SLP099 T00671050

More Conditions Fewer Conditions

Pressure 29.83 in
Visibility 10.0 miles
Clouds Few 4800 ft
Scattered Clouds 6500 ft
Mostly Cloudy 10000 ft
Windchill 38 °F
Dew Point 23 °F
Humidity 43%
Rainfall 0.04 in
Snow Depth 1 in
UV 1 out of 12
Pollen Not available.
Air Quality Not available.
Flu Activity Not available.
METAR PABT 030153Z 25011G26KT 10SM FEW048 SCT065 BKN100 07/M05 A2979 RMK AO2 PK WND 25029/0132 SLP099 T00671050

More Conditions Fewer Conditions

10-Day Weather Forecast

Almanac

Astronomy

Sep. 02, 2014 Rise Set
Actual Time 6:36 AM AKDT 9:26 PM AKDT
Civil Twilight 5:34 AM AKDT 10:27 PM AKDT
Nautical Twilight 3:57 AM AKDT 12:00 AM AKDT
Astronomical Twilight Sun does not rise Sun does not rise
Moon 6:02 PM AKDT (9/2) 10:58 PM AKDT (9/2)
Length of Visible Light 16h 53m
Length of Day
14h 49m
Tomorrow will be 7m 41s shorter.
First Quarter, 57% of the Moon is Illuminated
Today
First Quarter
Sep 8
Full
Sep 15
Last Quarter
Sep 24
New
Oct 1
First Quarter

Today's Extremes

State Highs State Lows

Community

WunderPhotos

Upload Photos

1,749,841 photos uploaded!

Nearby

Snow Depth

Station Depth Elevation
Coldfoot 1 in 1040 ft
Gobblers Knob 0 in 2030 ft
Atigun Pass 8 in 4800 ft
Imnaviat Creek 25 in 3050 ft
Fort Yukon 1 in 430 ft

Earthquake Activity

City Distance Mag. Time & Date
No recent earthquake activity has been reported nearby.
Minimum magnitude displayed is 2.5.

Coastal Water Temperatures

Place Temperature
No Stations Reporting

Nearby Weather Stations